createdAt,value
2016-11-17T00:00:44.175Z,0
2016-11-17T00:01:44.152Z,0
2016-11-17T00:02:44.152Z,0
2016-11-17T00:03:44.132Z,0
2016-11-17T00:04:44.127Z,0
2016-11-17T00:05:44.118Z,0
2016-11-17T00:06:44.107Z,0
2016-11-17T00:07:44.094Z,0
2016-11-17T00:08:44.081Z,0
2016-11-17T00:09:44.069Z,0
2016-11-17T00:10:44.354Z,0
2016-11-17T00:11:44.046Z,0
2016-11-17T00:12:44.035Z,0
2016-11-17T00:13:44.030Z,0
2016-11-17T00:14:44.012Z,0
2016-11-17T00:15:44.002Z,0
2016-11-17T00:16:43.991Z,0
2016-11-17T00:17:43.986Z,0
2016-11-17T00:18:43.970Z,0
2016-11-17T00:19:43.969Z,0
2016-11-17T00:20:43.950Z,0
2016-11-17T00:21:43.945Z,0
2016-11-17T00:22:43.930Z,0
2016-11-17T00:23:43.928Z,0
2016-11-17T00:24:43.906Z,0
2016-11-17T00:25:43.907Z,0
2016-11-17T00:26:43.884Z,0
2016-11-17T00:27:43.879Z,0.28
2016-11-17T00:28:43.861Z,0
2016-11-17T00:29:43.852Z,0
2016-11-17T00:30:43.840Z,0
2016-11-17T00:31:43.828Z,0
2016-11-17T00:32:43.815Z,0
2016-11-17T00:33:43.818Z,0
2016-11-17T00:34:43.802Z,0
2016-11-17T00:35:43.784Z,0
2016-11-17T00:36:43.777Z,0
2016-11-17T00:37:43.762Z,0
2016-11-17T00:38:43.755Z,0
2016-11-17T00:39:43.741Z,0.28
2016-11-17T00:40:43.743Z,0.85
2016-11-17T00:41:43.718Z,1.23
2016-11-17T00:42:43.712Z,1.9
2016-11-17T00:43:43.698Z,1.9
2016-11-17T00:44:43.687Z,1.42
2016-11-17T00:45:43.675Z,1.04
2016-11-17T00:46:43.660Z,0.85
2016-11-17T00:47:43.652Z,0.38
2016-11-17T00:48:43.651Z,0
2016-11-17T00:49:43.630Z,0
2016-11-17T00:50:43.617Z,0
2016-11-17T00:51:43.618Z,0
2016-11-17T00:52:43.798Z,0
2016-11-17T00:53:43.590Z,0
2016-11-17T00:54:43.576Z,0
2016-11-17T00:55:43.560Z,0
2016-11-17T00:56:43.551Z,0
2016-11-17T00:57:43.558Z,0
2016-11-17T00:58:43.528Z,0
2016-11-17T00:59:43.528Z,0
2016-11-17T01:00:43.505Z,0
2016-11-17T01:01:43.496Z,0
2016-11-17T01:02:43.488Z,0
2016-11-17T01:03:43.469Z,0
2016-11-17T01:04:43.460Z,0
2016-11-17T01:05:43.454Z,0
2016-11-17T01:06:43.441Z,0
2016-11-17T01:07:43.426Z,0
2016-11-17T01:08:43.414Z,0
2016-11-17T01:09:43.398Z,0
2016-11-17T01:10:43.407Z,0
2016-11-17T01:11:43.381Z,0
2016-11-17T01:12:43.419Z,0
2016-11-17T01:13:43.361Z,0
2016-11-17T01:14:43.346Z,0
2016-11-17T01:15:43.336Z,0
2016-11-17T01:16:43.335Z,0
2016-11-17T01:17:43.309Z,0
2016-11-17T01:18:43.298Z,0
2016-11-17T01:19:43.288Z,0
2016-11-17T01:20:43.275Z,0
2016-11-17T01:21:43.272Z,0
2016-11-17T01:22:43.253Z,0
2016-11-17T01:23:43.240Z,0
2016-11-17T01:24:43.234Z,0
2016-11-17T01:25:43.219Z,0
2016-11-17T01:26:43.205Z,0
2016-11-17T01:27:43.206Z,0
2016-11-17T01:28:43.184Z,0
2016-11-17T01:29:43.169Z,0
2016-11-17T01:30:43.160Z,0
2016-11-17T01:31:43.149Z,0
2016-11-17T01:32:43.144Z,0
2016-11-17T01:33:43.126Z,0
2016-11-17T01:34:43.114Z,0
2016-11-17T01:35:43.108Z,0
2016-11-17T01:36:43.095Z,0
2016-11-17T01:37:43.081Z,0
2016-11-17T01:38:43.075Z,0
2016-11-17T01:39:43.055Z,0
2016-11-17T01:40:43.047Z,0
2016-11-17T01:41:43.039Z,0
2016-11-17T01:42:43.023Z,0
2016-11-17T01:43:43.011Z,0
2016-11-17T01:44:43.001Z,0
2016-11-17T01:45:42.986Z,0
2016-11-17T01:46:43.299Z,0
2016-11-17T01:47:42.964Z,0
2016-11-17T01:48:42.954Z,0
2016-11-17T01:49:42.945Z,0
2016-11-17T01:50:42.930Z,0
2016-11-17T01:51:42.918Z,0
2016-11-17T01:52:42.905Z,0
2016-11-17T01:53:42.894Z,0
2016-11-17T01:54:42.893Z,0
2016-11-17T01:55:42.877Z,0
2016-11-17T01:56:42.869Z,0
2016-11-17T01:57:42.860Z,0
2016-11-17T01:58:42.844Z,0
2016-11-17T01:59:42.829Z,0
2016-11-17T02:00:42.816Z,0
2016-11-17T02:01:42.802Z,0
2016-11-17T02:02:42.792Z,0
2016-11-17T02:03:42.782Z,0
2016-11-17T02:04:42.770Z,0
2016-11-17T02:05:42.760Z,1.23
2016-11-17T02:06:42.748Z,1.71
2016-11-17T02:07:42.735Z,2.37
2016-11-17T02:08:42.930Z,2.18
2016-11-17T02:09:42.715Z,3.42
2016-11-17T02:10:42.704Z,3.13
2016-11-17T02:11:42.690Z,3.51
2016-11-17T02:12:42.676Z,3.42
2016-11-17T02:13:42.669Z,3.8
2016-11-17T02:14:42.669Z,4.46
2016-11-17T02:15:42.641Z,4.65
2016-11-17T02:16:42.637Z,5.22
2016-11-17T02:17:42.624Z,5.6
2016-11-17T02:18:42.612Z,5.41
2016-11-17T02:19:42.602Z,5.69
2016-11-17T02:20:42.586Z,5.22
2016-11-17T02:21:42.577Z,4.94
2016-11-17T02:22:42.564Z,4.17
2016-11-17T02:23:42.560Z,3.89
2016-11-17T02:24:42.539Z,3.13
2016-11-17T02:25:42.533Z,2.47
2016-11-17T02:26:42.512Z,1.99
2016-11-17T02:27:42.504Z,2.18
2016-11-17T02:28:42.494Z,2.18
2016-11-17T02:29:42.479Z,2.28
2016-11-17T02:30:42.473Z,2.37
2016-11-17T02:31:42.457Z,2.37
2016-11-17T02:32:42.453Z,2.94
2016-11-17T02:33:42.434Z,3.7
2016-11-17T02:34:42.428Z,4.27
2016-11-17T02:35:42.415Z,4.84
2016-11-17T02:36:42.412Z,4.93
2016-11-17T02:37:42.390Z,4.74
2016-11-17T02:38:42.377Z,4.36
2016-11-17T02:39:42.369Z,4.08
2016-11-17T02:40:42.358Z,3.7
2016-11-17T02:41:42.348Z,2.94
2016-11-17T02:42:42.344Z,2.66
2016-11-17T02:43:42.319Z,3.03
2016-11-17T02:44:42.310Z,3.13
2016-11-17T02:45:42.301Z,3.03
2016-11-17T02:46:42.279Z,2.66
2016-11-17T02:47:42.279Z,3.03
2016-11-17T02:48:42.268Z,3.7
2016-11-17T02:49:42.254Z,3.7
2016-11-17T02:50:42.244Z,4.27
2016-11-17T02:51:42.226Z,4.08
2016-11-17T02:52:42.220Z,4.17
2016-11-17T02:53:42.199Z,4.17
2016-11-17T02:54:42.189Z,4.55
2016-11-17T02:55:42.184Z,5.03
2016-11-17T02:56:42.170Z,4.74
2016-11-17T02:57:42.249Z,4.93
2016-11-17T02:58:42.141Z,3.7
2016-11-17T02:59:42.131Z,3.41
2016-11-17T03:00:42.126Z,3.32
2016-11-17T03:01:42.105Z,3.32
2016-11-17T03:02:42.150Z,2.75
2016-11-17T03:03:42.088Z,2.56
2016-11-17T03:04:42.071Z,2.56
2016-11-17T03:05:42.062Z,2.47
2016-11-17T03:06:42.047Z,2.94
2016-11-17T03:07:42.038Z,3.22
2016-11-17T03:08:42.028Z,3.7
2016-11-17T03:09:42.065Z,4.27
2016-11-17T03:10:42.008Z,4.08
2016-11-17T03:11:41.990Z,4.65
2016-11-17T03:12:41.984Z,4.93
2016-11-17T03:13:41.968Z,4.55
2016-11-17T03:14:41.962Z,5.22
2016-11-17T03:15:41.942Z,5.41
2016-11-17T03:16:41.932Z,5.12
2016-11-17T03:17:41.922Z,5.03
2016-11-17T03:18:41.909Z,5.03
2016-11-17T03:19:41.895Z,4.93
2016-11-17T03:20:41.887Z,5.12
2016-11-17T03:21:41.872Z,5.03
2016-11-17T03:22:41.860Z,5.22
2016-11-17T03:23:41.847Z,5.6
2016-11-17T03:24:41.846Z,5.98
2016-11-17T03:25:41.835Z,6.64
2016-11-17T03:26:41.819Z,6.83
2016-11-17T03:27:41.805Z,6.83
2016-11-17T03:28:41.797Z,6.93
2016-11-17T03:29:41.777Z,6.74
2016-11-17T03:30:41.773Z,7.12
2016-11-17T03:31:41.756Z,7.5
2016-11-17T03:32:41.741Z,7.59
2016-11-17T03:33:41.731Z,7.59
2016-11-17T03:34:41.739Z,7.59
2016-11-17T03:35:41.709Z,7.59
2016-11-17T03:36:41.704Z,7.68
2016-11-17T03:37:41.684Z,7.68
2016-11-17T03:38:41.676Z,7.03
2016-11-17T03:39:41.664Z,7.5
2016-11-17T03:40:41.653Z,8.16
2016-11-17T03:41:41.643Z,8.25
2016-11-17T03:42:41.622Z,8.83
2016-11-17T03:43:41.614Z,8.82
2016-11-17T03:44:41.605Z,8.26
2016-11-17T03:45:41.588Z,8.07
2016-11-17T03:46:41.578Z,7.97
2016-11-17T03:47:41.571Z,9.01
2016-11-17T03:48:41.555Z,9.39
2016-11-17T03:49:41.546Z,10.44
2016-11-17T03:50:41.533Z,11.39
2016-11-17T03:51:41.527Z,12.15
2016-11-17T03:52:41.513Z,12.62
2016-11-17T03:53:41.497Z,13.19
2016-11-17T03:54:41.485Z,13.2
2016-11-17T03:55:41.476Z,11.87
2016-11-17T03:56:41.462Z,10.91
2016-11-17T03:57:41.456Z,11.01
2016-11-17T03:58:41.441Z,10.82
2016-11-17T03:59:41.435Z,10.53
2016-11-17T04:00:41.423Z,10.06
2016-11-17T04:01:41.405Z,9.2
2016-11-17T04:02:41.400Z,9.68
2016-11-17T04:03:41.385Z,10.63
2016-11-17T04:04:41.365Z,11.01
2016-11-17T04:05:41.353Z,11.58
2016-11-17T04:06:41.352Z,11.39
2016-11-17T04:07:41.331Z,11.49
2016-11-17T04:08:41.529Z,11.58
2016-11-17T04:09:41.470Z,11.39
2016-11-17T04:10:41.460Z,10.91
2016-11-17T04:11:41.286Z,10.35
2016-11-17T04:12:41.268Z,10.44
2016-11-17T04:13:41.345Z,10.35
2016-11-17T04:14:41.251Z,10.25
2016-11-17T04:15:41.450Z,10.72
2016-11-17T04:16:41.440Z,10.72
2016-11-17T04:17:41.432Z,11.01
2016-11-17T04:18:41.281Z,10.35
2016-11-17T04:19:41.409Z,10.35
2016-11-17T04:20:41.175Z,10.25
2016-11-17T04:21:41.167Z,10.16
2016-11-17T04:22:41.157Z,9.86
2016-11-17T04:23:41.148Z,9.3
2016-11-17T04:24:41.135Z,9.2
2016-11-17T04:25:41.117Z,9.01
2016-11-17T04:26:41.127Z,8.44
2016-11-17T04:27:41.097Z,7.88
2016-11-17T04:28:41.089Z,7.88
2016-11-17T04:29:41.074Z,8.16
2016-11-17T04:30:41.071Z,8.16
2016-11-17T04:31:41.047Z,8.16
2016-11-17T04:32:41.035Z,8.35
2016-11-17T04:33:41.032Z,8.06
2016-11-17T04:34:41.010Z,8.16
2016-11-17T04:35:41.013Z,7.4
2016-11-17T04:36:40.987Z,7.4
2016-11-17T04:37:40.976Z,7.12
2016-11-17T04:38:40.968Z,6.83
2016-11-17T04:39:40.953Z,6.92
2016-11-17T04:40:40.946Z,7.59
2016-11-17T04:41:40.926Z,7.4
2016-11-17T04:42:40.917Z,7.59
2016-11-17T04:43:40.904Z,7.78
2016-11-17T04:44:40.897Z,7.5
2016-11-17T04:45:40.881Z,7.68
2016-11-17T04:46:40.878Z,8.16
2016-11-17T04:47:40.856Z,7.97
2016-11-17T04:48:40.852Z,7.78
2016-11-17T04:49:40.836Z,7.68
2016-11-17T04:50:40.822Z,7.68
2016-11-17T04:51:40.824Z,7.68
2016-11-17T04:52:40.827Z,7.12
2016-11-17T04:53:40.834Z,7.03
2016-11-17T04:54:40.872Z,7.12
2016-11-17T04:55:40.850Z,7.4
2016-11-17T04:56:40.798Z,6.74
2016-11-17T04:57:40.760Z,7.4
2016-11-17T04:58:40.768Z,8.16
2016-11-17T04:59:40.810Z,8.73
2016-11-17T05:00:40.791Z,8.92
2016-11-17T05:01:40.800Z,9.2
2016-11-17T05:02:40.732Z,9.3
2016-11-17T05:03:40.743Z,9.2
2016-11-17T05:04:40.759Z,9.59
2016-11-17T05:05:40.763Z,9.3
2016-11-17T05:06:40.775Z,9.11
2016-11-17T05:07:40.806Z,9.2
2016-11-17T05:08:40.780Z,9.59
2016-11-17T05:09:40.686Z,9.87
2016-11-17T05:10:40.704Z,9.59
2016-11-17T05:11:40.697Z,9.78
2016-11-17T05:12:40.707Z,9.78
2016-11-17T05:13:40.725Z,9.11
2016-11-17T05:14:40.724Z,8.83
2016-11-17T05:15:40.743Z,9.11
2016-11-17T05:16:40.673Z,8.83
2016-11-17T05:17:40.674Z,8.92
2016-11-17T05:18:40.683Z,8.73
2016-11-17T05:19:40.704Z,9.01
2016-11-17T05:20:40.697Z,8.64
2016-11-17T05:21:40.724Z,8.07
2016-11-17T05:22:40.604Z,7.68
2016-11-17T05:23:40.623Z,7.78
2016-11-17T05:24:40.704Z,7.03
2016-11-17T05:25:40.644Z,6.93
2016-11-17T05:26:40.644Z,6.26
2016-11-17T05:27:40.663Z,6.74
2016-11-17T05:28:40.663Z,6.74
2016-11-17T05:29:40.668Z,7.21
2016-11-17T05:30:40.646Z,7.31
2016-11-17T05:31:40.631Z,7.59
2016-11-17T05:32:40.494Z,6.83
2016-11-17T05:33:40.479Z,6.55
2016-11-17T05:34:40.673Z,6.74
2016-11-17T05:35:40.772Z,6.55
2016-11-17T05:36:40.465Z,7.12
2016-11-17T05:37:40.472Z,7.5
2016-11-17T05:38:40.481Z,7.78
2016-11-17T05:39:40.469Z,7.5
2016-11-17T05:40:40.455Z,6.83
2016-11-17T05:41:40.448Z,5.98
2016-11-17T05:42:40.328Z,4.93
2016-11-17T05:43:40.296Z,4.93
2016-11-17T05:44:40.295Z,4.17
2016-11-17T05:45:40.292Z,4.55
2016-11-17T05:46:40.281Z,4.65
2016-11-17T05:47:40.154Z,4.65
2016-11-17T05:48:40.146Z,4.74
2016-11-17T05:49:40.137Z,5.22
2016-11-17T05:50:40.129Z,5.32
2016-11-17T05:51:40.111Z,4.36
2016-11-17T05:52:40.096Z,4.27
2016-11-17T05:53:40.092Z,4.17
2016-11-17T05:54:40.071Z,5.12
2016-11-17T05:55:40.065Z,5.79
2016-11-17T05:56:40.049Z,6.64
2016-11-17T05:57:40.065Z,6.36
2016-11-17T05:58:40.026Z,6.55
2016-11-17T05:59:40.013Z,6.74
2016-11-17T06:00:40.029Z,7.03
2016-11-17T06:01:39.988Z,7.4
2016-11-17T06:02:39.981Z,7.5
2016-11-17T06:03:39.964Z,7.5
2016-11-17T06:04:39.953Z,7.78
2016-11-17T06:05:39.947Z,7.31
2016-11-17T06:06:39.928Z,7.03
2016-11-17T06:07:39.921Z,7.21
2016-11-17T06:08:39.907Z,6.93
2016-11-17T06:09:39.899Z,7.03
2016-11-17T06:10:39.881Z,6.93
2016-11-17T06:11:39.879Z,7.03
2016-11-17T06:12:39.860Z,7.4
2016-11-17T06:13:39.850Z,7.03
2016-11-17T06:14:39.835Z,7.5
2016-11-17T06:15:39.825Z,7.68
2016-11-17T06:16:39.815Z,8.26
2016-11-17T06:17:39.806Z,8.16
2016-11-17T06:18:39.794Z,8.07
2016-11-17T06:19:39.785Z,8.73
2016-11-17T06:20:39.768Z,8.73
2016-11-17T06:21:39.755Z,9.11
2016-11-17T06:22:39.742Z,9.87
2016-11-17T06:23:39.737Z,10.44
2016-11-17T06:24:39.721Z,10.25
2016-11-17T06:25:39.717Z,10.25
2016-11-17T06:26:39.693Z,11.01
2016-11-17T06:27:39.689Z,11.1
2016-11-17T06:28:39.674Z,11.58
2016-11-17T06:29:39.663Z,12.24
2016-11-17T06:30:39.651Z,12.24
2016-11-17T06:31:39.636Z,11.77
2016-11-17T06:32:39.625Z,11.96
2016-11-17T06:33:39.621Z,11.77
2016-11-17T06:34:39.603Z,12.81
2016-11-17T06:35:39.597Z,12.91
2016-11-17T06:36:39.579Z,13.95
2016-11-17T06:37:39.570Z,13.85
2016-11-17T06:38:39.562Z,14.05
2016-11-17T06:39:39.547Z,13.95
2016-11-17T06:40:39.537Z,14.62
2016-11-17T06:41:39.529Z,14.81
2016-11-17T06:42:39.545Z,15
2016-11-17T06:43:39.499Z,14.71
2016-11-17T06:44:39.494Z,14.71
2016-11-17T06:45:39.483Z,14.81
2016-11-17T06:46:39.485Z,14.81
2016-11-17T06:47:39.452Z,14.33
2016-11-17T06:48:39.441Z,14.71
2016-11-17T06:49:39.433Z,15.56
2016-11-17T06:50:39.417Z,15.95
2016-11-17T06:51:39.410Z,16.33
2016-11-17T06:52:39.402Z,16.52
2016-11-17T06:53:39.383Z,16.14
2016-11-17T06:54:39.373Z,15.95
2016-11-17T06:55:39.362Z,15.95
2016-11-17T06:56:39.345Z,16.33
2016-11-17T06:57:39.339Z,15.95
2016-11-17T06:58:39.330Z,15.85
2016-11-17T06:59:39.310Z,15.85
2016-11-17T07:00:39.311Z,16.23
2016-11-17T07:01:39.291Z,17.47
2016-11-17T07:02:39.280Z,17.66
2016-11-17T07:03:39.270Z,18.04
2016-11-17T07:04:39.254Z,19.37
2016-11-17T07:05:39.245Z,19.74
2016-11-17T07:06:39.234Z,20.22
2016-11-17T07:07:39.219Z,20.41
2016-11-17T07:08:39.262Z,19.46
2016-11-17T07:09:39.196Z,19.74
2016-11-17T07:10:39.179Z,19.74
2016-11-17T07:11:39.187Z,19.56
2016-11-17T07:12:39.164Z,19.84
2016-11-17T07:13:39.154Z,20.31
2016-11-17T07:14:39.139Z,20.22
2016-11-17T07:15:39.129Z,21.64
2016-11-17T07:16:39.112Z,22.69
2016-11-17T07:17:39.104Z,22.31
2016-11-17T07:18:39.094Z,22.97
2016-11-17T07:19:39.079Z,23.35
2016-11-17T07:20:39.074Z,23.16
2016-11-17T07:21:39.053Z,24.21
2016-11-17T07:22:39.049Z,23.83
2016-11-17T07:23:39.034Z,26.01
2016-11-17T07:24:39.022Z,25.82
2016-11-17T07:25:39.011Z,25.63
2016-11-17T07:26:39.043Z,26.77
2016-11-17T07:27:38.989Z,26.59
2016-11-17T07:28:38.978Z,26.48
2016-11-17T07:29:38.993Z,26.01
2016-11-17T07:30:38.950Z,26.29
2016-11-17T07:31:38.939Z,26.48
2016-11-17T07:32:38.929Z,28.48
2016-11-17T07:33:38.920Z,29.25
2016-11-17T07:34:38.908Z,29.43
2016-11-17T07:35:38.893Z,31.44
2016-11-17T07:36:38.883Z,32.01
2016-11-17T07:37:38.868Z,32.29
2016-11-17T07:38:38.856Z,32.29
2016-11-17T07:39:38.848Z,31.34
2016-11-17T07:40:38.840Z,30.58
2016-11-17T07:41:38.827Z,30.87
2016-11-17T07:42:38.811Z,30.68
2016-11-17T07:43:38.800Z,30.49
2016-11-17T07:44:38.792Z,32.1
2016-11-17T07:45:38.781Z,34.57
2016-11-17T07:46:38.767Z,34.19
2016-11-17T07:47:38.752Z,36.47
2016-11-17T07:48:38.747Z,34.95
2016-11-17T07:49:38.736Z,35.61
2016-11-17T07:50:38.722Z,34.67
2016-11-17T07:51:38.713Z,34.38
2016-11-17T07:52:38.701Z,34
2016-11-17T07:53:38.692Z,36.94
2016-11-17T07:54:38.674Z,37.13
2016-11-17T07:55:38.668Z,37.04
2016-11-17T07:56:38.658Z,40.75
2016-11-17T07:57:38.648Z,39.61
2016-11-17T07:58:38.633Z,40.17
2016-11-17T07:59:38.620Z,39.98
2016-11-17T08:00:38.610Z,40.94
2016-11-17T08:01:38.597Z,41.22
2016-11-17T08:02:38.590Z,43.02
2016-11-17T08:03:38.577Z,43.79
2016-11-17T08:04:38.568Z,42.83
2016-11-17T08:05:38.550Z,42.55
2016-11-17T08:06:38.580Z,44.17
2016-11-17T08:07:38.535Z,44.64
2016-11-17T08:08:38.517Z,44.83
2016-11-17T08:09:38.506Z,45.4
2016-11-17T08:10:38.499Z,45.4
2016-11-17T08:11:38.483Z,44.73
2016-11-17T08:12:38.478Z,45.12
2016-11-17T08:13:38.486Z,45.12
2016-11-17T08:14:38.487Z,46.06
2016-11-17T08:15:38.496Z,44.83
2016-11-17T08:16:38.496Z,44.54
2016-11-17T08:17:38.505Z,43.69
2016-11-17T08:18:38.510Z,42.93
2016-11-17T08:19:38.412Z,42.83
2016-11-17T08:20:38.422Z,42.93
2016-11-17T08:22:38.765Z,43.02
2016-11-17T08:23:38.439Z,44.26
2016-11-17T08:24:38.392Z,45.21
2016-11-17T08:25:38.455Z,45.12
2016-11-17T08:26:38.423Z,45.4
2016-11-17T08:27:38.416Z,46.35
2016-11-17T08:28:38.425Z,47.39
2016-11-17T08:29:38.599Z,47.02
2016-11-17T08:30:38.433Z,45.02
2016-11-17T08:31:38.470Z,43.98
2016-11-17T08:32:38.349Z,45.31
2016-11-17T08:33:38.351Z,44.54
2016-11-17T08:34:38.362Z,46.64
2016-11-17T08:35:38.370Z,46
2016-11-17T08:36:38.377Z,46.54
2016-11-17T08:37:38.379Z,47.8
2016-11-17T08:38:38.388Z,46.56
2016-11-17T08:39:38.253Z,45.33
2016-11-17T08:40:38.262Z,45.04
2016-11-17T08:41:38.282Z,44.95
2016-11-17T08:42:38.419Z,44
2016-11-17T08:43:38.278Z,43.9
2016-11-17T08:44:38.326Z,43.43
2016-11-17T08:45:38.196Z,43.33
2016-11-17T08:46:38.209Z,44.57
2016-11-17T08:47:38.352Z,45.14
2016-11-17T08:48:38.212Z,44.19
2016-11-17T08:49:38.222Z,45.04
2016-11-17T08:50:38.230Z,44.85
2016-11-17T08:51:38.239Z,44.85
2016-11-17T08:52:38.239Z,43.52
2016-11-17T08:53:38.217Z,43.05
2016-11-17T08:54:38.086Z,43.14
2016-11-17T08:55:38.065Z,44.76
2016-11-17T08:56:38.057Z,43.14
2016-11-17T08:57:38.172Z,41.72
2016-11-17T08:58:38.180Z,39.06
2016-11-17T08:59:38.020Z,38.29
2016-11-17T09:00:38.021Z,37.15
2016-11-17T09:01:38.008Z,36.21
2016-11-17T09:02:38.044Z,34.69
2016-11-17T09:03:38.018Z,34.78
2016-11-17T09:04:38.010Z,32.97
2016-11-17T09:05:37.983Z,33.73
2016-11-17T09:06:37.982Z,32.88
2016-11-17T09:07:37.972Z,32.31
2016-11-17T09:08:37.861Z,31.17
2016-11-17T09:09:37.846Z,31.07
2016-11-17T09:10:37.834Z,31.26
2016-11-17T09:11:37.834Z,33.17
2016-11-17T09:12:37.819Z,35.63
2016-11-17T09:13:37.807Z,35.16
2016-11-17T09:14:37.790Z,35.25
2016-11-17T09:15:37.784Z,36.11
2016-11-17T09:16:37.769Z,35.16
2016-11-17T09:17:37.761Z,35.16
2016-11-17T09:18:37.749Z,37.73
2016-11-17T09:19:37.741Z,41.53
2016-11-17T09:20:37.730Z,41.34
2016-11-17T09:21:37.723Z,40.1
2016-11-17T09:22:37.713Z,38.87
2016-11-17T09:23:37.698Z,39.43
2016-11-17T09:24:37.683Z,41.24
2016-11-17T09:25:37.682Z,42.57
2016-11-17T09:26:37.663Z,41.91
2016-11-17T09:27:37.658Z,40.67
2016-11-17T09:28:37.652Z,41.14
2016-11-17T09:29:37.637Z,40.77
2016-11-17T09:30:37.622Z,40.48
2016-11-17T09:31:37.617Z,41.05
2016-11-17T09:32:37.602Z,40.48
2016-11-17T09:33:37.599Z,37.63
2016-11-17T09:34:37.583Z,39.43
2016-11-17T09:35:37.578Z,40.1
2016-11-17T09:36:37.560Z,39.15
2016-11-17T09:37:37.561Z,42.47
2016-11-17T09:38:37.541Z,42.38
2016-11-17T09:39:37.530Z,43.33
2016-11-17T09:40:37.519Z,42.97
2016-11-17T09:41:37.508Z,40.69
2016-11-17T09:42:37.494Z,42.31
2016-11-17T09:43:37.489Z,45.83
2016-11-17T09:44:37.475Z,48.77
2016-11-17T09:45:37.479Z,47.73
2016-11-17T09:46:37.455Z,50.01
2016-11-17T09:47:37.449Z,50.77
2016-11-17T09:48:37.442Z,52.58
2016-11-17T09:49:37.430Z,52.96
2016-11-17T09:50:37.417Z,55.43
2016-11-17T09:51:37.411Z,55.9
2016-11-17T09:52:37.401Z,54.48
2016-11-17T09:53:37.441Z,54.19
2016-11-17T09:54:37.379Z,53.34
2016-11-17T09:55:37.396Z,50.29
2016-11-17T09:56:37.358Z,49.73
2016-11-17T09:57:37.350Z,50.01
2016-11-17T09:58:37.338Z,48.21
2016-11-17T09:59:37.641Z,49.91
2016-11-17T10:00:37.319Z,48.96
2016-11-17T10:01:37.317Z,49.25
2016-11-17T10:02:37.302Z,48.21
2016-11-17T10:03:37.344Z,44.12
2016-11-17T10:04:37.279Z,46.01
2016-11-17T10:05:37.273Z,45.35
2016-11-17T10:06:37.260Z,42.6
2016-11-17T10:07:37.250Z,40.03
2016-11-17T10:08:37.238Z,40.88
2016-11-17T10:09:37.232Z,41.74
2016-11-17T10:10:37.217Z,43.54
2016-11-17T10:11:37.223Z,48.11
2016-11-17T10:12:37.205Z,49.15
2016-11-17T10:13:37.240Z,49.18
2016-11-17T10:14:37.179Z,45.83
2016-11-17T10:15:37.172Z,45.95
2016-11-17T10:16:37.160Z,49.56
2016-11-17T10:17:37.162Z,51.75
2016-11-17T10:18:37.168Z,48.32
2016-11-17T10:19:37.138Z,53.65
2016-11-17T10:20:37.135Z,56.51
2016-11-17T10:21:37.130Z,56.7
2016-11-17T10:22:37.103Z,51.46
2016-11-17T10:23:37.098Z,54.79
2016-11-17T10:24:37.089Z,53.55
2016-11-17T10:25:37.082Z,53.27
2016-11-17T10:26:37.068Z,54.79
2016-11-17T10:27:37.055Z,53.94
2016-11-17T10:28:37.046Z,52.7
2016-11-17T10:29:37.038Z,51.18
2016-11-17T10:30:37.029Z,50.79
2016-11-17T10:31:37.021Z,49.25
2016-11-17T10:32:37.025Z,49.91
2016-11-17T10:33:37.005Z,51.15
2016-11-17T10:34:37.007Z,51.82
2016-11-17T10:35:36.976Z,50.96
2016-11-17T10:36:36.980Z,50.1
2016-11-17T10:37:36.969Z,50.68
2016-11-17T10:38:36.959Z,45.92
2016-11-17T10:39:36.956Z,46.49
2016-11-17T10:40:36.935Z,46.01
2016-11-17T10:41:36.922Z,44.68
2016-11-17T10:42:36.923Z,43.16
2016-11-17T10:43:36.904Z,41.46
2016-11-17T10:44:36.900Z,40.59
2016-11-17T10:45:36.887Z,39.17
2016-11-17T10:46:36.877Z,36.7
2016-11-17T10:47:36.867Z,36.79
2016-11-17T10:48:36.854Z,36.98
2016-11-17T10:49:36.852Z,37.27
2016-11-17T10:50:36.838Z,37.18
2016-11-17T10:51:36.856Z,40.5
2016-11-17T10:52:36.828Z,40.79
2016-11-17T10:53:36.807Z,40.5
2016-11-17T10:54:36.799Z,38.98
2016-11-17T10:55:36.786Z,38.22
2016-11-17T10:56:36.782Z,36.89
2016-11-17T10:57:36.769Z,37.37
2016-11-17T10:58:36.761Z,36.32
2016-11-17T10:59:36.747Z,36.22
2016-11-17T11:00:36.740Z,35.46
2016-11-17T11:01:36.727Z,34.61
2016-11-17T11:02:36.717Z,35.37
2016-11-17T11:03:36.707Z,36.79
2016-11-17T11:04:36.706Z,36.98
2016-11-17T11:05:36.688Z,35.17
2016-11-17T11:06:36.674Z,36.89
2016-11-17T11:07:36.673Z,36.98
2016-11-17T11:08:36.658Z,36.13
2016-11-17T11:09:36.653Z,36.79
2016-11-17T11:10:36.640Z,35.17
2016-11-17T11:11:36.630Z,35.27
2016-11-17T11:12:36.619Z,36.7
2016-11-17T11:13:36.620Z,44.97
2016-11-17T11:14:36.600Z,43.54
2016-11-17T11:15:36.590Z,43.93
2016-11-17T11:16:36.585Z,45.07
2016-11-17T11:17:36.575Z,46.49
2016-11-17T11:18:36.561Z,47.82
2016-11-17T11:19:36.550Z,50.01
2016-11-17T11:20:36.542Z,47.63
2016-11-17T11:21:36.541Z,51.43
2016-11-17T11:22:36.522Z,47.73
2016-11-17T11:23:36.512Z,46.49
2016-11-17T11:24:36.526Z,48.01
2016-11-17T11:25:36.505Z,48.11
2016-11-17T11:26:36.479Z,49.15
2016-11-17T11:27:36.477Z,48.21
2016-11-17T11:28:36.465Z,50.01
2016-11-17T11:29:36.453Z,49.73
2016-11-17T11:30:36.446Z,54
2016-11-17T11:31:36.437Z,53.53
2016-11-17T11:32:36.425Z,53.53
2016-11-17T11:33:36.424Z,52.2
2016-11-17T11:34:36.411Z,50.29
2016-11-17T11:35:36.399Z,50.96
2016-11-17T11:36:36.393Z,50.01
2016-11-17T11:37:36.376Z,52.29
2016-11-17T11:38:36.371Z,51.91
2016-11-17T11:39:36.422Z,50.77
2016-11-17T11:40:36.376Z,50.96
2016-11-17T11:41:36.340Z,56.1
2016-11-17T11:42:36.324Z,53.72
2016-11-17T11:43:36.323Z,55.62
2016-11-17T11:44:36.314Z,55.52
2016-11-17T11:45:36.304Z,57.26
2016-11-17T11:46:36.292Z,56.38
2016-11-17T11:47:36.275Z,55.62
2016-11-17T11:48:36.268Z,56.29
2016-11-17T11:49:36.258Z,56.67
2016-11-17T11:50:36.248Z,56.1
2016-11-17T11:51:36.243Z,56.67
2016-11-17T11:52:36.229Z,55.43
2016-11-17T11:53:36.218Z,57.24
2016-11-17T11:54:36.210Z,55.05
2016-11-17T11:55:36.199Z,57.81
2016-11-17T11:56:36.199Z,58.37
2016-11-17T11:57:36.179Z,57.14
2016-11-17T11:58:36.186Z,58.37
2016-11-17T11:59:36.189Z,59.8
2016-11-17T12:00:36.157Z,62.56
2016-11-17T12:01:36.139Z,59.93
2016-11-17T12:02:36.143Z,59.83
2016-11-17T12:03:36.129Z,62.69
2016-11-17T12:04:36.124Z,61.83
2016-11-17T12:05:36.102Z,62.02
2016-11-17T12:06:36.095Z,62.49
2016-11-17T12:07:36.085Z,62.59
2016-11-17T12:08:36.084Z,63.07
2016-11-17T12:09:36.064Z,63.35
2016-11-17T12:10:36.063Z,63.07
2016-11-17T12:11:36.059Z,64.21
2016-11-17T12:12:36.038Z,62.4
2016-11-17T12:13:36.032Z,62.3
2016-11-17T12:14:36.020Z,63.17
2016-11-17T12:15:36.013Z,63.35
2016-11-17T12:16:36.004Z,62.4
2016-11-17T12:17:35.998Z,61.64
2016-11-17T12:18:35.986Z,66.3
2016-11-17T12:19:35.971Z,63.89
2016-11-17T12:20:35.961Z,63.17
2016-11-17T12:21:35.958Z,62.27
2016-11-17T12:22:35.948Z,60.57
2016-11-17T12:23:35.954Z,62.08
2016-11-17T12:24:35.926Z,63.13
2016-11-17T12:25:35.913Z,59.9
2016-11-17T12:26:35.904Z,59.52
2016-11-17T12:27:35.898Z,58.37
2016-11-17T12:28:35.888Z,58.37
2016-11-17T12:29:35.880Z,56.76
2016-11-17T12:30:35.863Z,55.15
2016-11-17T12:31:35.854Z,54.96
2016-11-17T12:32:35.851Z,55.62
2016-11-17T12:33:35.840Z,54.57
2016-11-17T12:34:35.830Z,55.05
2016-11-17T12:35:35.832Z,57.81
2016-11-17T12:36:35.808Z,56.38
2016-11-17T12:37:35.798Z,54.96
2016-11-17T12:38:35.792Z,55.71
2016-11-17T12:39:35.779Z,56.76
2016-11-17T12:40:35.768Z,58.85
2016-11-17T12:41:35.773Z,57.04
2016-11-17T12:42:35.750Z,55.43
2016-11-17T12:43:35.746Z,56.1
2016-11-17T12:44:35.727Z,56.29
2016-11-17T12:45:35.718Z,55.71
2016-11-17T12:46:35.709Z,55.52
2016-11-17T12:47:35.703Z,53.15
2016-11-17T12:48:35.690Z,52.96
2016-11-17T12:49:35.682Z,52.29
2016-11-17T12:50:36.246Z,52.29
2016-11-17T12:51:35.666Z,52.48
2016-11-17T12:52:35.655Z,54.86
2016-11-17T12:53:35.643Z,55.15
2016-11-17T12:54:35.630Z,52.58
2016-11-17T12:55:35.624Z,51.15
2016-11-17T12:56:35.615Z,49.73
2016-11-17T12:57:35.605Z,49.25
2016-11-17T12:58:35.591Z,47.73
2016-11-17T12:59:35.588Z,44.68
2016-11-17T13:00:35.577Z,44.87
2016-11-17T13:01:35.570Z,45.16
2016-11-17T13:02:35.555Z,44.68
2016-11-17T13:03:35.542Z,43.26
2016-11-17T13:04:35.532Z,43.45
2016-11-17T13:05:35.532Z,44.49
2016-11-17T13:06:35.510Z,43.07
2016-11-17T13:07:35.505Z,41.64
2016-11-17T13:08:35.491Z,49.15
2016-11-17T13:09:35.488Z,48.87
2016-11-17T13:10:35.477Z,49.73
2016-11-17T13:11:35.476Z,51.06
2016-11-17T13:12:35.457Z,51.25
2016-11-17T13:13:35.445Z,49.54
2016-11-17T13:14:35.435Z,53.43
2016-11-17T13:15:35.419Z,51.91
2016-11-17T13:16:35.413Z,51.72
2016-11-17T13:17:35.407Z,52.01
2016-11-17T13:18:35.397Z,51.82